Time;durP1;ratioP1;P1;durP2;ratioP2;P2;SDS_P1;SDS_P2;PMS_P1;PMS_P2;Temp;Humidity;BMP_temperature;BMP_pressure;BME280_temperature;BME280_humidity;BME280_pressure;Samples;Min_cycle;Max_cycle;Signal;HPM_P1;HPM_P2
2023/11/21 00:01:08;;;;;;;9.25;2.70;;;8.90;99.90;;;;;;4916906;29;20466;-81
2023/11/21 00:03:35;;;;;;;12.25;3.53;;;9.00;99.90;;;;;;4932764;29;20040;-81
2023/11/21 00:06:02;;;;;;;11.57;3.75;;;9.20;99.90;;;;;;4929519;29;20052;-81
2023/11/21 00:08:29;;;;;;;13.23;3.60;;;8.90;99.90;;;;;;4931881;29;20084;-81
2023/11/21 00:10:56;;;;;;;12.55;4.20;;;8.90;99.90;;;;;;4916793;29;20045;-81
2023/11/21 00:13:23;;;;;;;14.95;3.70;;;8.90;99.90;;;;;;4925620;29;20051;-80
2023/11/21 00:15:49;;;;;;;13.20;4.13;;;9.50;99.90;;;;;;4918976;29;20405;-81
2023/11/21 00:18:16;;;;;;;18.23;5.07;;;8.90;99.90;;;;;;4934040;29;20040;-81
2023/11/21 00:20:43;;;;;;;18.42;3.90;;;9.00;99.90;;;;;;4916141;29;20044;-80
2023/11/21 00:23:09;;;;;;;15.38;4.00;;;8.90;99.90;;;;;;4951362;29;20163;-81
2023/11/21 00:25:36;;;;;;;13.00;3.63;;;9.20;99.90;;;;;;4947849;29;20051;-81
2023/11/21 00:28:03;;;;;;;14.00;3.97;;;8.90;99.90;;;;;;4916881;29;20048;-81
2023/11/21 00:30:30;;;;;;;16.30;4.63;;;8.80;99.90;;;;;;4932679;29;20040;-81
2023/11/21 00:32:57;;;;;;;15.80;4.22;;;8.80;99.90;;;;;;4941074;29;20509;-81
2023/11/21 00:35:24;;;;;;;16.27;4.72;;;9.30;99.90;;;;;;4920981;29;20080;-80
2023/11/21 00:37:50;;;;;;;12.48;4.47;;;8.80;99.90;;;;;;4924648;29;20044;-81
2023/11/21 00:40:20;;;;;;;12.52;4.47;;;8.80;99.90;;;;;;4921739;29;20506;-81
2023/11/21 00:42:47;;;;;;;15.18;5.03;;;8.80;99.90;;;;;;4951268;29;20047;-81
2023/11/21 00:45:14;;;;;;;15.93;4.90;;;9.20;99.90;;;;;;4938339;29;20792;-81
2023/11/21 00:47:42;;;;;;;12.23;4.30;;;8.80;99.90;;;;;;4938384;29;20036;-80
2023/11/21 00:50:09;;;;;;;16.77;5.20;;;8.80;99.90;;;;;;4916304;29;20040;-81
2023/11/21 00:52:36;;;;;;;19.10;6.10;;;8.80;99.90;;;;;;4916354;29;20115;-81
2023/11/21 00:55:04;;;;;;;16.15;4.70;;;8.80;99.90;;;;;;4916278;29;20514;-81
2023/11/21 00:57:31;;;;;;;15.95;4.47;;;8.80;99.90;;;;;;4933190;29;20152;-81
2023/11/21 00:59:57;;;;;;;12.23;4.90;;;8.80;99.90;;;;;;4936945;29;20510;-81
2023/11/21 01:02:25;;;;;;;17.08;5.70;;;8.80;99.90;;;;;;4933193;29;20139;-81
2023/11/21 01:04:51;;;;;;;18.73;5.38;;;9.00;99.90;;;;;;4916217;29;20076;-81
2023/11/21 01:07:20;;;;;;;20.58;5.00;;;8.80;99.90;;;;;;4931741;29;20091;-80
2023/11/21 01:09:48;;;;;;;18.83;5.57;;;8.80;99.90;;;;;;4916382;29;20052;-80
2023/11/21 01:12:17;;;;;;;18.95;5.40;;;8.80;99.90;;;;;;4915982;29;20041;-81
2023/11/21 01:14:45;;;;;;;14.73;5.65;;;8.90;99.90;;;;;;4931331;29;20478;-81
2023/11/21 01:17:11;;;;;;;18.15;5.75;;;8.90;99.90;;;;;;4934139;29;20040;-80
2023/11/21 01:19:38;;;;;;;22.25;6.93;;;9.00;99.90;;;;;;4915753;29;20037;-81
2023/11/21 01:22:05;;;;;;;18.05;6.35;;;9.10;99.90;;;;;;4921229;29;20037;-79
2023/11/21 01:24:31;;;;;;;23.20;6.25;;;8.90;99.90;;;;;;4931251;29;20047;-81
2023/11/21 01:26:58;;;;;;;23.98;6.20;;;8.90;99.90;;;;;;4928329;29;20048;-80
2023/11/21 01:29:24;;;;;;;19.65;6.43;;;8.90;99.90;;;;;;4915424;29;20128;-81
2023/11/21 01:31:51;;;;;;;19.25;7.93;;;9.20;99.90;;;;;;4932684;29;20099;-81
2023/11/21 01:34:18;;;;;;;19.05;6.88;;;9.40;99.90;;;;;;4939676;29;20524;-82
2023/11/21 01:36:46;;;;;;;20.02;7.50;;;8.90;99.90;;;;;;4919210;29;20036;-81
2023/11/21 01:39:15;;;;;;;24.80;8.13;;;9.00;99.90;;;;;;4915692;29;20044;-81
2023/11/21 01:41:44;;;;;;;32.67;8.73;;;9.00;99.90;;;;;;4931107;29;20511;-81
2023/11/21 01:44:10;;;;;;;18.77;8.00;;;9.10;99.90;;;;;;4930799;29;20417;-81
2023/11/21 01:46:39;;;;;;;23.20;7.60;;;9.50;99.90;;;;;;4935061;29;20047;-81
2023/11/21 01:49:05;;;;;;;20.30;8.10;;;9.30;99.90;;;;;;4949738;29;20043;-80
2023/11/21 01:51:32;;;;;;;24.08;8.13;;;9.40;99.90;;;;;;4929319;29;20044;-81
2023/11/21 01:53:59;;;;;;;17.92;7.95;;;9.00;99.90;;;;;;4915417;29;20108;-81
2023/11/21 01:56:26;;;;;;;26.30;8.93;;;9.00;99.90;;;;;;4927463;29;20044;-81
2023/11/21 01:58:53;;;;;;;24.33;8.75;;;9.00;99.90;;;;;;4915162;29;20047;-80
2023/11/21 02:01:20;;;;;;;24.42;8.55;;;9.40;99.90;;;;;;4914882;29;20095;-80
2023/11/21 02:03:47;;;;;;;25.17;8.63;;;9.00;99.90;;;;;;4930676;29;20068;-80
2023/11/21 02:06:13;;;;;;;24.67;9.35;;;9.00;99.90;;;;;;4915325;29;20048;-81
2023/11/21 02:08:42;;;;;;;28.73;9.40;;;9.00;99.90;;;;;;4926854;29;20485;-81
2023/11/21 02:11:09;;;;;;;29.65;9.43;;;9.00;99.90;;;;;;4931239;29;20055;-81
2023/11/21 02:13:35;;;;;;;23.60;9.30;;;9.00;99.90;;;;;;4904595;29;20040;-81
2023/11/21 02:16:02;;;;;;;24.58;9.00;;;9.00;99.90;;;;;;4914799;29;20048;-81
2023/11/21 02:18:30;;;;;;;19.65;8.57;;;9.00;99.90;;;;;;4930818;29;20105;-80
2023/11/21 02:20:56;;;;;;;27.30;8.50;;;9.00;99.90;;;;;;4918313;29;20401;-81
2023/11/21 02:23:28;;;;;;;28.58;9.10;;;9.00;99.90;;;;;;4925625;29;20036;-80
2023/11/21 02:25:55;;;;;;;22.55;8.52;;;9.00;99.90;;;;;;4922391;29;20095;-81
2023/11/21 02:28:25;;;;;;;29.60;9.55;;;9.10;99.90;;;;;;4930451;29;20052;-81
2023/11/21 02:30:56;;;;;;;28.80;8.98;;;9.70;99.90;;;;;;4930437;29;20128;-81
2023/11/21 02:33:23;;;;;;;28.27;8.93;;;9.00;99.90;;;;;;4927033;29;20505;-81
2023/11/21 02:35:51;;;;;;;24.67;9.13;;;9.00;99.90;;;;;;4933635;29;20099;-80
2023/11/21 02:38:17;;;;;;;24.85;9.95;;;9.10;99.90;;;;;;4929097;29;20120;-81
2023/11/21 02:40:44;;;;;;;23.27;8.38;;;9.40;99.90;;;;;;4929926;29;20164;-81
2023/11/21 02:43:11;;;;;;;26.33;9.23;;;9.10;99.90;;;;;;4944220;29;20036;-81
2023/11/21 02:45:37;;;;;;;23.63;9.32;;;9.10;99.90;;;;;;4930296;29;20045;-81
2023/11/21 02:48:06;;;;;;;27.67;8.95;;;9.10;99.90;;;;;;4920375;29;20048;-80
2023/11/21 02:50:32;;;;;;;28.25;9.52;;;9.00;99.90;;;;;;4921611;29;20047;-80
2023/11/21 02:53:00;;;;;;;28.58;9.85;;;9.10;99.90;;;;;;4927313;29;20041;-80
2023/11/21 02:55:27;;;;;;;25.08;9.00;;;9.20;99.90;;;;;;4930255;29;20044;-81
2023/11/21 02:57:56;;;;;;;23.63;9.30;;;9.30;99.90;;;;;;4908251;29;20041;-81
2023/11/21 03:00:24;;;;;;;26.58;8.73;;;9.10;99.90;;;;;;4937171;29;20489;-80
2023/11/21 03:02:50;;;;;;;27.95;9.80;;;9.20;99.90;;;;;;4917998;29;20382;-81
2023/11/21 03:05:17;;;;;;;34.55;9.93;;;9.10;99.90;;;;;;4933387;29;20091;-80
2023/11/21 03:07:44;;;;;;;28.40;9.80;;;9.10;99.90;;;;;;4933342;29;20040;-80
2023/11/21 03:10:10;;;;;;;26.95;9.13;;;9.30;99.90;;;;;;4922562;29;20116;-81
2023/11/21 03:12:40;;;;;;;26.00;9.65;;;9.10;99.90;;;;;;4934553;29;20449;-81
2023/11/21 03:15:08;;;;;;;33.67;9.77;;;9.40;99.90;;;;;;4937781;29;20458;-80
2023/11/21 03:17:35;;;;;;;34.30;10.40;;;9.10;99.90;;;;;;4914523;29;20120;-80
2023/11/21 03:20:03;;;;;;;32.55;9.80;;;9.10;99.90;;;;;;4923754;29;20620;-80
2023/11/21 03:22:30;;;;;;;28.98;9.60;;;9.10;99.90;;;;;;4934064;29;20044;-81
2023/11/21 03:24:57;;;;;;;27.23;9.65;;;9.10;99.90;;;;;;4922498;29;20043;-80
2023/11/21 03:27:23;;;;;;;27.13;10.35;;;9.10;99.90;;;;;;4914513;29;20225;-81
2023/11/21 03:29:50;;;;;;;25.35;8.80;;;9.10;99.90;;;;;;4930106;29;20068;-81
2023/11/21 03:32:17;;;;;;;33.20;9.02;;;9.40;99.90;;;;;;4917083;29;20047;-80
2023/11/21 03:34:58;;;;;;;25.52;9.45;;;9.10;99.90;;;;;;4921525;29;20056;-80
2023/11/21 03:37:25;;;;;;;28.83;9.38;;;9.10;99.90;;;;;;4902741;29;20044;-81
2023/11/21 03:39:51;;;;;;;24.48;9.38;;;9.20;99.90;;;;;;4913774;29;20041;-81
2023/11/21 03:42:18;;;;;;;26.13;8.90;;;9.10;99.90;;;;;;4914240;29;20127;-80
2023/11/21 03:44:45;;;;;;;24.45;9.10;;;9.10;99.90;;;;;;4930867;29;20037;-81
2023/11/21 03:47:11;;;;;;;26.85;10.18;;;9.10;99.90;;;;;;4937327;29;20053;-81
2023/11/21 03:49:38;;;;;;;25.90;9.43;;;9.10;99.90;;;;;;4917496;29;20126;-81
2023/11/21 03:52:05;;;;;;;34.72;9.35;;;9.10;99.90;;;;;;4932998;29;20044;-81
2023/11/21 03:54:32;;;;;;;27.13;10.30;;;9.10;99.90;;;;;;4932577;29;20127;-81
2023/11/21 03:56:58;;;;;;;27.13;9.30;;;9.10;99.90;;;;;;4917544;29;20131;-81
2023/11/21 03:59:25;;;;;;;25.27;9.30;;;9.60;99.90;;;;;;4948729;29;20046;-80
2023/11/21 04:01:51;;;;;;;24.38;9.60;;;9.30;99.90;;;;;;4936039;29;20052;-81
2023/11/21 04:04:18;;;;;;;28.95;11.40;;;9.40;99.90;;;;;;4919509;29;20044;-81
2023/11/21 04:06:46;;;;;;;32.67;15.02;;;9.10;99.90;;;;;;4917319;29;20552;-81
2023/11/21 04:09:12;;;;;;;32.95;12.25;;;9.10;99.90;;;;;;4917342;29;20041;-81
2023/11/21 04:11:39;;;;;;;33.15;11.05;;;9.10;99.90;;;;;;4917193;29;20390;-80
2023/11/21 04:14:06;;;;;;;37.47;10.65;;;9.10;99.90;;;;;;4919549;29;20051;-81
2023/11/21 04:16:33;;;;;;;28.50;10.35;;;9.10;99.90;;;;;;4924555;29;20493;-81
2023/11/21 04:19:00;;;;;;;25.67;10.25;;;9.10;99.90;;;;;;4921519;29;20430;-81
2023/11/21 04:21:27;;;;;;;35.42;10.77;;;9.10;99.90;;;;;;4932253;29;20190;-81
2023/11/21 04:23:53;;;;;;;33.85;10.68;;;9.10;99.90;;;;;;4932288;29;20045;-81
2023/11/21 04:26:20;;;;;;;44.33;11.38;;;9.10;99.90;;;;;;4941509;29;20409;-80
2023/11/21 04:28:47;;;;;;;39.50;11.40;;;9.10;99.90;;;;;;4920232;29;20040;-81
2023/11/21 04:31:13;;;;;;;37.53;10.75;;;9.10;99.90;;;;;;4917120;29;20068;-81
2023/11/21 04:33:40;;;;;;;54.63;11.02;;;9.10;99.90;;;;;;4935775;29;20123;-81
2023/11/21 04:36:07;;;;;;;35.95;10.93;;;9.30;99.90;;;;;;4925397;29;20084;-81
2023/11/21 04:38:34;;;;;;;31.50;10.52;;;9.10;99.90;;;;;;4932071;29;20044;-81
2023/11/21 04:41:00;;;;;;;31.75;10.43;;;9.50;99.90;;;;;;4916675;29;20099;-81
2023/11/21 04:43:27;;;;;;;35.75;10.88;;;9.10;99.90;;;;;;4921117;29;20503;-81
2023/11/21 04:45:55;;;;;;;40.50;10.75;;;9.10;99.90;;;;;;4924083;29;20049;-81
2023/11/21 04:48:21;;;;;;;40.05;10.70;;;9.10;99.90;;;;;;4934311;29;20052;-81
2023/11/21 04:50:48;;;;;;;38.67;10.27;;;9.30;99.90;;;;;;4923335;29;20044;-81
2023/11/21 04:53:14;;;;;;;30.63;10.55;;;9.30;99.90;;;;;;4932043;29;20454;-81
2023/11/21 04:55:41;;;;;;;38.05;10.25;;;9.10;99.90;;;;;;4928355;29;20051;-80
2023/11/21 04:58:08;;;;;;;32.22;10.60;;;9.20;99.90;;;;;;4916254;29;20047;-81
2023/11/21 05:00:36;;;;;;;31.20;9.45;;;9.10;99.90;;;;;;4915503;29;20506;-81
2023/11/21 05:03:04;;;;;;;36.67;10.50;;;9.10;99.90;;;;;;4918030;29;20119;-81
2023/11/21 05:05:31;;;;;;;25.73;9.40;;;9.10;99.90;;;;;;4934737;29;20088;-81
2023/11/21 05:07:57;;;;;;;22.58;8.00;;;9.10;99.90;;;;;;4924119;29;20045;-81
2023/11/21 05:10:24;;;;;;;22.80;7.88;;;9.00;99.90;;;;;;4909534;29;20048;-80
2023/11/21 05:12:50;;;;;;;21.10;7.60;;;9.00;99.90;;;;;;4928754;29;20072;-81
2023/11/21 05:15:17;;;;;;;23.13;7.25;;;9.10;99.90;;;;;;4928699;29;20471;-81
2023/11/21 05:17:45;;;;;;;27.67;7.40;;;9.10;99.90;;;;;;4922352;29;20052;-81
2023/11/21 05:20:13;;;;;;;25.17;8.30;;;9.00;99.90;;;;;;4938686;29;20128;-81
2023/11/21 05:22:41;;;;;;;33.03;7.20;;;9.10;99.90;;;;;;4931457;29;20048;-80
2023/11/21 05:25:08;;;;;;;31.15;7.82;;;9.20;99.90;;;;;;4916733;29;20395;-80
2023/11/21 05:27:36;;;;;;;26.88;7.55;;;9.00;99.90;;;;;;4937711;29;20091;-81
2023/11/21 05:30:09;;;;;;;19.13;6.70;;;9.00;99.90;;;;;;4934095;29;20552;-81
2023/11/21 05:32:35;;;;;;;20.63;7.57;;;9.10;99.90;;;;;;4915791;29;20485;-80
2023/11/21 05:35:02;;;;;;;21.60;7.38;;;9.10;99.90;;;;;;4915601;29;20183;-81
2023/11/21 05:37:29;;;;;;;25.15;7.60;;;9.10;99.90;;;;;;4939150;29;20044;-81
2023/11/21 05:39:56;;;;;;;18.20;7.85;;;9.10;99.90;;;;;;4935513;29;20111;-81
2023/11/21 05:42:23;;;;;;;25.75;8.20;;;9.10;99.90;;;;;;4915484;29;20124;-81
2023/11/21 05:44:50;;;;;;;21.27;8.23;;;9.20;99.90;;;;;;4915489;29;20074;-81
2023/11/21 05:47:17;;;;;;;17.55;7.80;;;9.10;99.90;;;;;;4931068;29;20468;-81
2023/11/21 05:49:45;;;;;;;22.58;7.82;;;9.50;99.90;;;;;;4926960;29;20542;-81
2023/11/21 05:52:11;;;;;;;22.30;8.10;;;9.10;99.90;;;;;;4922023;29;20048;-81
2023/11/21 05:54:38;;;;;;;17.58;7.90;;;9.10;99.90;;;;;;4931970;29;20044;-81
2023/11/21 05:57:05;;;;;;;20.35;8.07;;;9.20;99.90;;;;;;4923583;29;20077;-81
2023/11/21 05:59:31;;;;;;;21.92;8.38;;;9.10;99.90;;;;;;4927582;29;20041;-81
2023/11/21 06:01:58;;;;;;;24.83;9.20;;;9.30;99.90;;;;;;4930469;29;20053;-80
2023/11/21 06:04:25;;;;;;;25.63;8.98;;;9.50;99.90;;;;;;4931973;29;20040;-81
2023/11/21 06:06:52;;;;;;;21.50;8.43;;;9.00;99.90;;;;;;4914542;29;20860;-81
2023/11/21 06:09:20;;;;;;;22.00;8.98;;;9.40;99.90;;;;;;4915058;29;20045;-81
2023/11/21 06:11:47;;;;;;;21.38;8.55;;;9.00;99.90;;;;;;4930552;29;20110;-80
2023/11/21 06:14:14;;;;;;;22.70;9.15;;;9.00;99.90;;;;;;4919102;29;20056;-81
2023/11/21 06:16:41;;;;;;;23.98;9.75;;;9.00;99.90;;;;;;4924630;29;20044;-80
2023/11/21 06:19:08;;;;;;;25.73;10.60;;;8.90;99.90;;;;;;4930309;29;20092;-80
2023/11/21 06:21:35;;;;;;;26.70;10.43;;;9.30;99.90;;;;;;4923975;29;20045;-80
2023/11/21 06:24:02;;;;;;;29.45;11.23;;;8.80;99.90;;;;;;4914791;29;20148;-81
2023/11/21 06:26:28;;;;;;;28.67;11.23;;;8.90;99.90;;;;;;4917299;29;20044;-81
2023/11/21 06:28:56;;;;;;;29.55;11.45;;;8.80;99.90;;;;;;4929052;29;20422;-81
2023/11/21 06:31:23;;;;;;;26.00;10.32;;;8.80;99.90;;;;;;4918412;29;20418;-81
2023/11/21 06:33:51;;;;;;;31.50;12.13;;;8.80;99.90;;;;;;4920493;29;20045;-81
2023/11/21 06:36:18;;;;;;;29.25;12.10;;;9.00;99.90;;;;;;4925085;29;20092;-80
2023/11/21 06:38:45;;;;;;;31.02;11.60;;;9.10;99.90;;;;;;4915042;29;20072;-81
2023/11/21 06:41:15;;;;;;;29.13;11.98;;;8.70;99.90;;;;;;4915117;29;20044;-80
2023/11/21 06:43:46;;;;;;;29.92;11.38;;;9.00;99.90;;;;;;4914777;29;20040;-81
2023/11/21 06:46:16;;;;;;;32.75;12.20;;;8.70;99.90;;;;;;4914600;29;20044;-80
2023/11/21 06:48:43;;;;;;;24.38;10.75;;;8.70;99.90;;;;;;4914636;29;20044;-80
2023/11/21 06:51:09;;;;;;;29.05;12.00;;;9.10;99.90;;;;;;4906125;29;20410;-80
2023/11/21 06:53:37;;;;;;;25.27;11.57;;;9.40;99.90;;;;;;4923362;29;20049;-80
2023/11/21 06:56:04;;;;;;;27.33;12.23;;;8.60;99.90;;;;;;4905548;29;20041;-80
2023/11/21 06:58:33;;;;;;;27.17;12.70;;;8.60;99.90;;;;;;4939721;29;20036;-80
2023/11/21 07:01:00;;;;;;;25.10;11.32;;;9.20;99.90;;;;;;4913998;29;20056;-80
2023/11/21 07:03:26;;;;;;;24.08;12.23;;;9.30;99.90;;;;;;4914506;29;20602;-80
2023/11/21 07:05:53;;;;;;;22.15;10.77;;;8.60;99.90;;;;;;4916666;29;20052;-80
2023/11/21 07:08:19;;;;;;;25.38;11.15;;;8.50;99.90;;;;;;4924482;29;20493;-80
2023/11/21 07:10:47;;;;;;;23.17;11.63;;;8.50;99.90;;;;;;4901567;29;20052;-81
2023/11/21 07:13:13;;;;;;;24.20;11.60;;;8.50;99.90;;;;;;4914116;29;20083;-80
2023/11/21 07:15:40;;;;;;;26.95;12.38;;;8.50;99.90;;;;;;4919117;29;20076;-80
2023/11/21 07:18:07;;;;;;;32.78;13.27;;;8.50;99.90;;;;;;4931507;29;20044;-80
2023/11/21 07:20:34;;;;;;;26.33;12.95;;;9.00;99.90;;;;;;4920193;29;20041;-80
2023/11/21 07:23:00;;;;;;;26.90;13.02;;;8.60;99.90;;;;;;4924601;29;20048;-80
2023/11/21 07:25:27;;;;;;;27.30;14.13;;;8.60;99.90;;;;;;4943574;29;20044;-80
2023/11/21 07:27:55;;;;;;;34.72;14.70;;;9.00;99.90;;;;;;4930870;29;20044;-80
2023/11/21 07:30:22;;;;;;;33.08;14.35;;;8.50;99.90;;;;;;4925689;29;20414;-80
2023/11/21 07:32:49;;;;;;;29.00;15.13;;;8.40;99.90;;;;;;4930884;29;20040;-80
2023/11/21 07:35:16;;;;;;;28.80;15.13;;;8.40;99.90;;;;;;4940638;29;20441;-80
2023/11/21 07:37:43;;;;;;;26.40;14.50;;;8.40;99.90;;;;;;4925059;29;20476;-80
2023/11/21 07:40:11;;;;;;;28.48;14.25;;;8.60;99.90;;;;;;4938113;29;20073;-80
2023/11/21 07:42:38;;;;;;;25.95;13.90;;;8.40;99.90;;;;;;4925225;29;20413;-80
2023/11/21 07:45:06;;;;;;;25.73;13.68;;;8.40;99.90;;;;;;4930127;29;20041;-80
2023/11/21 07:47:34;;;;;;;26.95;14.50;;;8.40;99.90;;;;;;4941266;29;20044;-80
2023/11/21 07:50:03;;;;;;;29.10;13.57;;;8.60;99.90;;;;;;4945402;29;20052;-80
2023/11/21 07:52:29;;;;;;;26.60;13.40;;;8.40;99.90;;;;;;4917661;29;20060;-79
2023/11/21 07:54:56;;;;;;;28.30;14.23;;;8.80;99.90;;;;;;4927927;29;20044;-79
2023/11/21 07:57:22;;;;;;;24.50;13.88;;;8.80;99.90;;;;;;4919204;29;20044;-80
2023/11/21 07:59:49;;;;;;;26.60;14.45;;;8.40;99.90;;;;;;4917037;29;20049;-79
2023/11/21 08:02:17;;;;;;;30.80;14.18;;;8.40;99.90;;;;;;4910570;29;20056;-80
2023/11/21 08:04:44;;;;;;;26.08;13.30;;;8.40;99.90;;;;;;4917719;29;20119;-80
2023/11/21 08:07:11;;;;;;;23.92;13.25;;;8.40;99.90;;;;;;4921912;29;20164;-80
2023/11/21 08:09:37;;;;;;;22.08;12.38;;;8.40;99.90;;;;;;4916543;29;20044;-80
2023/11/21 08:12:04;;;;;;;29.08;12.90;;;8.40;99.90;;;;;;4934814;29;20052;-80
2023/11/21 08:14:31;;;;;;;22.23;12.60;;;8.40;99.90;;;;;;4924809;29;20044;-80
2023/11/21 08:16:57;;;;;;;20.80;11.80;;;8.90;99.90;;;;;;4918510;29;20054;-80
2023/11/21 08:19:27;;;;;;;23.95;11.60;;;8.40;99.90;;;;;;4915572;29;20537;-81
2023/11/21 08:21:54;;;;;;;21.70;12.07;;;8.80;99.90;;;;;;4934884;29;20037;-80
2023/11/21 08:24:21;;;;;;;22.40;11.57;;;8.60;99.90;;;;;;4919453;29;20092;-80
2023/11/21 08:26:49;;;;;;;21.15;11.38;;;8.30;99.90;;;;;;4921722;29;20041;-80
2023/11/21 08:29:16;;;;;;;20.48;11.40;;;8.60;99.90;;;;;;4920716;29;20109;-80
2023/11/21 08:31:44;;;;;;;21.50;12.18;;;8.40;99.90;;;;;;4934881;29;20037;-80
2023/11/21 08:34:11;;;;;;;22.02;12.20;;;8.40;99.90;;;;;;4921478;29;20123;-80
2023/11/21 08:36:42;;;;;;;23.25;12.30;;;8.50;99.90;;;;;;4924041;29;20498;-80
2023/11/21 08:39:10;;;;;;;19.73;11.07;;;8.50;99.90;;;;;;4924208;29;20039;-80
2023/11/21 08:41:36;;;;;;;19.50;10.50;;;8.80;99.90;;;;;;4931940;29;20049;-80
2023/11/21 08:44:06;;;;;;;17.88;10.00;;;8.50;99.90;;;;;;4922233;29;20561;-80
2023/11/21 08:46:37;;;;;;;24.90;12.00;;;8.40;99.90;;;;;;4923017;29;20128;-80
2023/11/21 08:49:04;;;;;;;18.02;10.02;;;8.40;99.90;;;;;;4933426;29;20052;-81
2023/11/21 08:51:31;;;;;;;16.67;9.45;;;8.40;99.90;;;;;;4945253;29;20080;-80
2023/11/21 08:54:00;;;;;;;17.55;9.68;;;8.40;99.90;;;;;;4924530;29;20048;-81
2023/11/21 08:56:27;;;;;;;19.90;10.57;;;8.40;99.90;;;;;;4931245;29;20079;-80
2023/11/21 08:58:54;;;;;;;20.75;9.77;;;8.40;99.90;;;;;;4934018;29;20040;-81
2023/11/21 09:01:21;;;;;;;18.30;9.57;;;8.40;99.90;;;;;;4934622;29;20096;-80
2023/11/21 09:03:47;;;;;;;17.27;9.57;;;8.40;99.90;;;;;;4915858;29;20055;-80
2023/11/21 09:06:14;;;;;;;19.33;9.95;;;8.40;99.90;;;;;;4916013;29;20053;-81
2023/11/21 09:08:41;;;;;;;14.82;8.65;;;8.80;99.90;;;;;;4915875;29;20081;-81
2023/11/21 09:11:08;;;;;;;15.38;8.48;;;8.60;99.90;;;;;;4931318;29;20104;-80
2023/11/21 09:13:36;;;;;;;16.02;8.25;;;8.40;99.90;;;;;;4931155;29;20446;-80
2023/11/21 09:16:03;;;;;;;13.98;8.75;;;8.40;99.90;;;;;;4916239;29;20040;-80
2023/11/21 09:18:30;;;;;;;16.27;8.10;;;8.40;99.90;;;;;;4921748;29;20064;-80
2023/11/21 09:20:57;;;;;;;13.82;7.50;;;8.50;99.90;;;;;;4922309;29;20441;-80
2023/11/21 09:23:24;;;;;;;11.82;6.72;;;8.50;99.90;;;;;;4920346;29;20082;-80
2023/11/21 09:25:51;;;;;;;11.85;7.35;;;8.40;99.90;;;;;;4920164;29;20068;-80
2023/11/21 09:28:18;;;;;;;15.27;7.07;;;8.40;99.90;;;;;;4914901;29;20067;-81
2023/11/21 09:30:45;;;;;;;13.63;7.30;;;8.60;99.90;;;;;;4943278;29;20087;-81
2023/11/21 09:33:11;;;;;;;10.20;6.38;;;9.10;99.90;;;;;;4935869;29;20142;-80
2023/11/21 09:35:38;;;;;;;11.60;6.05;;;9.10;99.90;;;;;;4919905;29;20048;-80
2023/11/21 09:38:10;;;;;;;11.57;6.65;;;8.40;99.90;;;;;;4943042;29;20405;-80
2023/11/21 09:40:37;;;;;;;10.60;6.18;;;8.40;99.90;;;;;;4937126;29;20143;-81
2023/11/21 09:43:07;;;;;;;10.75;5.78;;;8.30;99.90;;;;;;4941708;29;20044;-80
2023/11/21 09:45:39;;;;;;;11.40;6.03;;;8.30;99.90;;;;;;4923547;29;20048;-80
2023/11/21 09:48:07;;;;;;;11.40;6.43;;;8.40;99.90;;;;;;4912060;29;20736;-80
2023/11/21 09:50:36;;;;;;;10.48;5.53;;;8.50;99.90;;;;;;4931059;29;20044;-80
2023/11/21 09:53:23;;;;;;;9.98;5.57;;;9.10;99.90;;;;;;4920356;29;20446;-80
2023/11/21 09:55:52;;;;;;;9.70;6.10;;;8.40;99.90;;;;;;4926155;29;20112;-80
2023/11/21 09:58:21;;;;;;;9.98;5.97;;;8.40;99.90;;;;;;4919903;29;20037;-80
2023/11/21 10:00:52;;;;;;;12.68;5.90;;;8.30;99.90;;;;;;4921835;29;20057;-80
2023/11/21 10:03:19;;;;;;;9.88;5.47;;;8.60;99.90;;;;;;4914120;29;20044;-80
2023/11/21 10:05:48;;;;;;;8.60;5.25;;;8.30;99.90;;;;;;4907362;29;20060;-80
2023/11/21 10:08:14;;;;;;;10.30;5.68;;;8.30;99.90;;;;;;4910243;29;20497;-80
2023/11/21 10:10:47;;;;;;;10.05;5.18;;;8.30;99.90;;;;;;4937172;29;20052;-80
2023/11/21 10:13:17;;;;;;;9.35;5.68;;;8.40;99.90;;;;;;4914487;29;20253;-80
2023/11/21 10:15:49;;;;;;;11.27;5.68;;;8.30;99.90;;;;;;4917960;29;20040;-80
2023/11/21 10:18:16;;;;;;;12.23;6.53;;;8.40;99.90;;;;;;4922442;29;20045;-79
2023/11/21 10:20:46;;;;;;;11.18;5.72;;;8.40;99.90;;;;;;4927181;29;20037;-81
2023/11/21 10:23:14;;;;;;;10.02;5.90;;;8.30;99.90;;;;;;4914500;29;20036;-81
2023/11/21 10:25:41;;;;;;;11.73;5.88;;;8.40;99.90;;;;;;4916992;29;20036;-80
2023/11/21 10:28:10;;;;;;;11.57;6.15;;;9.00;99.90;;;;;;4942170;29;20391;-80
2023/11/21 10:30:37;;;;;;;9.48;5.80;;;8.40;99.90;;;;;;4929596;29;20083;-80
2023/11/21 10:33:05;;;;;;;11.00;6.15;;;8.90;99.90;;;;;;4914534;29;20051;-80
2023/11/21 10:35:54;;;;;;;9.95;5.50;;;8.50;99.90;;;;;;4919192;29;20157;-82
2023/11/21 10:38:23;;;;;;;10.55;5.75;;;8.60;99.90;;;;;;4919919;29;20048;-81
2023/11/21 10:40:51;;;;;;;10.93;5.82;;;8.70;99.90;;;;;;4910743;29;20044;-81
2023/11/21 10:43:18;;;;;;;9.63;5.68;;;8.60;99.90;;;;;;4918279;29;20127;-84
2023/11/21 10:45:45;;;;;;;11.52;5.80;;;8.60;99.90;;;;;;4925408;29;20435;-86
2023/11/21 10:48:15;;;;;;;10.73;5.32;;;8.50;99.90;;;;;;4926339;29;20064;-86
2023/11/21 10:50:45;;;;;;;9.70;5.65;;;8.50;99.90;;;;;;4920273;29;20037;-84
2023/11/21 10:53:12;;;;;;;11.07;5.85;;;8.50;99.90;;;;;;4934570;29;20036;-85
2023/11/21 10:55:39;;;;;;;10.23;5.88;;;8.90;99.90;;;;;;4920850;29;20456;-85
2023/11/21 10:58:07;;;;;;;9.02;5.05;;;8.60;99.90;;;;;;4937710;29;20072;-85
2023/11/21 11:00:34;;;;;;;10.35;5.80;;;8.40;99.90;;;;;;4938604;29;20888;-85
2023/11/21 11:03:02;;;;;;;9.07;5.28;;;9.00;99.90;;;;;;4928767;29;20120;-85
2023/11/21 11:05:32;;;;;;;9.48;5.40;;;9.00;99.90;;;;;;4905877;29;20139;-84
2023/11/21 11:08:02;;;;;;;9.82;5.40;;;9.00;99.90;;;;;;4935786;29;20139;-85
2023/11/21 11:10:29;;;;;;;9.00;6.00;;;9.30;99.90;;;;;;4929059;29;20098;-85
2023/11/21 11:12:57;;;;;;;9.68;5.47;;;8.60;99.90;;;;;;4923221;29;20196;-85
2023/11/21 11:15:28;;;;;;;10.07;5.47;;;8.60;99.90;;;;;;4939071;29;20116;-85
2023/11/21 11:17:58;;;;;;;10.18;5.53;;;8.60;99.90;;;;;;4913519;29;20087;-85
2023/11/21 11:20:37;;;;;;;9.93;5.53;;;8.60;99.90;;;;;;4930502;29;20478;-85
2023/11/21 11:23:09;;;;;;;11.43;5.50;;;8.60;99.90;;;;;;4920169;29;20036;-85
2023/11/21 11:26:20;;;;;;;9.40;5.70;;;8.60;99.90;;;;;;4921563;29;20044;-84
2023/11/21 11:29:23;;;;;;;10.65;5.35;;;8.70;99.90;;;;;;4912450;29;20048;-84
2023/11/21 11:32:09;;;;;;;9.60;5.60;;;8.70;99.90;;;;;;4937776;29;20123;-87
2023/11/21 11:34:47;;;;;;;12.80;5.65;;;8.60;99.90;;;;;;4939026;29;20391;-86
2023/11/21 11:37:14;;;;;;;9.68;5.68;;;8.70;99.90;;;;;;4941820;29;20118;-86
2023/11/21 11:39:43;;;;;;;11.85;5.57;;;8.70;99.90;;;;;;4940642;29;20040;-85
2023/11/21 11:42:15;;;;;;;10.95;6.00;;;8.70;99.90;;;;;;4932856;29;20048;-84
2023/11/21 11:44:51;;;;;;;9.68;5.65;;;9.30;99.90;;;;;;4922943;29;20033;-84
2023/11/21 11:47:20;;;;;;;8.95;4.80;;;8.70;99.90;;;;;;4917310;29;20048;-84
2023/11/21 11:50:19;;;;;;;10.48;5.53;;;8.60;99.90;;;;;;4917089;29;20045;-85
2023/11/21 11:52:48;;;;;;;10.45;5.60;;;8.70;99.90;;;;;;4912299;29;20041;-84
2023/11/21 11:55:20;;;;;;;11.18;5.68;;;9.00;99.90;;;;;;4923902;29;20084;-85
2023/11/21 11:57:56;;;;;;;9.30;4.65;;;8.70;99.90;;;;;;4932964;29;20040;-85
2023/11/21 12:00:37;;;;;;;8.55;5.00;;;8.70;99.90;;;;;;4932749;29;20405;-85
2023/11/21 12:03:05;;;;;;;10.70;4.65;;;8.90;99.90;;;;;;4914208;29;20043;-85
2023/11/21 12:05:35;;;;;;;7.90;4.60;;;8.70;99.90;;;;;;4915921;29;20046;-85
2023/11/21 12:08:06;;;;;;;9.30;4.75;;;9.40;99.90;;;;;;4916713;29;20123;-86
2023/11/21 12:10:36;;;;;;;8.63;4.20;;;8.70;99.90;;;;;;4932290;29;20052;-85
2023/11/21 12:13:07;;;;;;;10.50;4.78;;;8.80;99.90;;;;;;4909863;29;20049;-85
2023/11/21 12:15:35;;;;;;;11.52;4.70;;;8.70;99.90;;;;;;4914798;29;20045;-85
2023/11/21 12:18:03;;;;;;;9.55;4.85;;;8.70;99.90;;;;;;4917278;29;20045;-85
2023/11/21 12:20:30;;;;;;;8.00;4.50;;;8.70;99.90;;;;;;4937118;29;20032;-85
2023/11/21 12:22:59;;;;;;;10.35;4.88;;;8.70;99.90;;;;;;4935960;29;20809;-85
2023/11/21 12:25:35;;;;;;;9.80;5.28;;;9.30;99.90;;;;;;4923721;29;20374;-85
2023/11/21 12:28:02;;;;;;;8.48;4.75;;;8.70;99.90;;;;;;4934589;29;20040;-85
2023/11/21 12:30:31;;;;;;;8.40;4.50;;;8.70;99.90;;;;;;4932615;29;20406;-85
2023/11/21 12:33:00;;;;;;;6.85;4.00;;;8.70;99.90;;;;;;4918850;29;20110;-85
2023/11/21 12:35:30;;;;;;;9.63;4.65;;;8.70;99.90;;;;;;4935206;29;20572;-85
2023/11/21 12:37:57;;;;;;;8.15;4.57;;;9.30;99.90;;;;;;4919282;29;20048;-85
2023/11/21 12:40:25;;;;;;;8.23;4.72;;;8.70;99.90;;;;;;4916699;29;20037;-85
2023/11/21 12:42:54;;;;;;;8.90;4.95;;;8.90;99.90;;;;;;4932048;29;20096;-85
2023/11/21 12:45:27;;;;;;;7.57;4.25;;;8.70;99.90;;;;;;4933418;29;20092;-86
2023/11/21 12:48:07;;;;;;;8.90;4.60;;;8.70;99.90;;;;;;4916652;29;20116;-85
2023/11/21 12:50:36;;;;;;;8.60;4.53;;;8.70;99.90;;;;;;4916090;29;20446;-85